createdAt,value
2023-02-11T00:00:52.795Z,7.72
2023-02-11T00:01:52.615Z,7.47
2023-02-11T00:02:52.508Z,7.66
2023-02-11T00:03:52.406Z,6.95
2023-02-11T00:04:52.311Z,6.33
2023-02-11T00:05:52.439Z,7.52
2023-02-11T00:06:52.077Z,7.66
2023-02-11T00:07:51.990Z,7.42
2023-02-11T00:08:51.887Z,7.25
2023-02-11T00:09:51.774Z,8.01
2023-02-11T00:10:51.911Z,7.52
2023-02-11T00:11:51.568Z,7.90
2023-02-11T00:12:51.483Z,7.08
2023-02-11T00:13:51.413Z,6.95
2023-02-11T00:14:51.240Z,7.00
2023-02-11T00:15:51.456Z,6.76
2023-02-11T00:16:51.128Z,6.55
2023-02-11T00:17:50.931Z,7.68
2023-02-11T00:18:50.856Z,7.03
2023-02-11T00:19:50.725Z,7.28
2023-02-11T00:20:50.637Z,6.59
2023-02-11T00:21:50.533Z,7.05
2023-02-11T00:22:50.432Z,6.81
2023-02-11T00:23:50.352Z,6.21
2023-02-11T00:24:50.220Z,6.82
2023-02-11T00:25:50.421Z,7.68
2023-02-11T00:26:50.018Z,7.67
2023-02-11T00:27:49.973Z,7.28
2023-02-11T00:28:49.873Z,7.32
2023-02-11T00:29:49.717Z,7.24
2023-02-11T00:30:49.712Z,6.68
2023-02-11T00:31:49.641Z,7.14
2023-02-11T00:32:49.417Z,7.29
2023-02-11T00:33:49.300Z,7.02
2023-02-11T00:34:49.211Z,6.80
2023-02-11T00:35:49.477Z,6.37
2023-02-11T00:36:48.981Z,7.23
2023-02-11T00:37:48.915Z,6.82
2023-02-11T00:38:48.802Z,7.29
2023-02-11T00:39:48.698Z,6.63
2023-02-11T00:40:48.580Z,6.70
2023-02-11T00:41:48.480Z,7.08
2023-02-11T00:42:48.410Z,6.99
2023-02-11T00:43:48.288Z,6.30
2023-02-11T00:44:48.217Z,6.74
2023-02-11T00:45:48.318Z,5.99
2023-02-11T00:46:47.966Z,6.78
2023-02-11T00:47:47.902Z,6.47
2023-02-11T00:48:47.766Z,6.80
2023-02-11T00:49:47.666Z,7.03
2023-02-11T00:50:47.593Z,7.27
2023-02-11T00:51:47.480Z,6.61
2023-02-11T00:52:47.360Z,6.37
2023-02-11T00:53:47.267Z,6.99
2023-02-11T00:54:47.156Z,6.82
2023-02-11T00:55:47.152Z,6.35
2023-02-11T00:56:46.932Z,7.27
2023-02-11T00:57:46.835Z,6.98
2023-02-11T00:58:47.068Z,6.48
2023-02-11T00:59:46.638Z,6.99
2023-02-11T01:00:46.531Z,6.22
2023-02-11T01:01:46.527Z,7.03
2023-02-11T01:02:46.324Z,5.90
2023-02-11T01:03:46.310Z,6.88
2023-02-11T01:04:46.133Z,6.53
2023-02-11T01:05:46.057Z,6.28
2023-02-11T01:06:45.920Z,6.45
2023-02-11T01:07:45.851Z,6.56
2023-02-11T01:08:45.719Z,6.28
2023-02-11T01:09:45.620Z,6.75
2023-02-11T01:10:45.520Z,6.22
2023-02-11T01:11:45.423Z,6.70
2023-02-11T01:12:45.319Z,5.72
2023-02-11T01:13:45.236Z,6.32
2023-02-11T01:14:45.127Z,6.39
2023-02-11T01:15:45.064Z,5.58
2023-02-11T01:16:44.920Z,5.97
2023-02-11T01:17:44.811Z,5.33
2023-02-11T01:18:44.696Z,6.41
2023-02-11T01:19:44.602Z,6.52
2023-02-11T01:20:44.506Z,6.11
2023-02-11T01:21:44.400Z,6.41
2023-02-11T01:22:44.311Z,5.60
2023-02-11T01:23:44.220Z,6.49
2023-02-11T01:24:44.120Z,6.29
2023-02-11T01:25:44.000Z,6.97
2023-02-11T02:12:39.263Z,5.39
2023-02-11T02:13:39.187Z,5.61
2023-02-11T02:14:39.126Z,5.19
2023-02-11T02:15:39.611Z,5.63
2023-02-11T02:16:38.876Z,5.41
2023-02-11T02:17:38.730Z,5.26
2023-02-11T02:18:38.642Z,5.82
2023-02-11T02:19:39.078Z,5.82
2023-02-11T02:20:38.429Z,5.50
2023-02-11T02:21:38.342Z,4.56
2023-02-11T02:22:38.241Z,5.39
2023-02-11T02:23:38.145Z,4.82
2023-02-11T02:24:38.038Z,5.24
2023-02-11T02:25:37.920Z,5.49
2023-02-11T02:26:37.823Z,5.28
2023-02-11T02:27:37.723Z,5.35
2023-02-11T02:28:37.615Z,5.21
2023-02-11T02:29:38.592Z,5.08
2023-02-11T02:30:37.442Z,5.74
2023-02-11T02:31:37.348Z,5.30
2023-02-11T02:32:37.197Z,5.40
2023-02-11T02:33:37.087Z,5.30
2023-02-11T02:34:36.983Z,5.27
2023-02-11T02:35:36.918Z,5.22
2023-02-11T02:36:36.787Z,5.24
2023-02-11T02:37:36.666Z,4.84
2023-02-11T02:38:36.569Z,5.68
2023-02-11T02:39:36.476Z,5.40
2023-02-11T02:40:36.365Z,4.51
2023-02-11T02:41:36.260Z,5.21
2023-02-11T02:42:36.183Z,5.45
2023-02-11T02:43:36.053Z,5.52
2023-02-11T02:44:36.016Z,4.82
2023-02-11T02:45:35.875Z,5.59
2023-02-11T02:46:35.779Z,5.91
2023-02-11T02:47:35.642Z,5.00
2023-02-11T02:48:35.536Z,5.41
2023-02-11T02:49:35.442Z,4.76
2023-02-11T02:50:35.353Z,5.20
2023-02-11T02:51:35.256Z,5.21
2023-02-11T02:52:35.124Z,4.66
2023-02-11T02:53:35.020Z,5.09
2023-02-11T02:54:34.923Z,4.97
2023-02-11T02:55:34.839Z,4.36
2023-02-11T02:56:34.726Z,5.04
2023-02-11T02:57:34.608Z,5.18
2023-02-11T02:58:34.506Z,4.72
2023-02-11T02:59:35.099Z,4.87
2023-02-11T03:00:34.347Z,4.85
2023-02-11T03:01:34.200Z,5.02
2023-02-11T03:02:34.081Z,4.81
2023-02-11T03:03:34.025Z,4.69
2023-02-11T03:41:30.248Z,4.11
2023-02-11T03:42:30.149Z,3.44
2023-02-11T03:43:30.047Z,3.94
2023-02-11T03:44:29.970Z,4.18
2023-02-11T03:45:29.907Z,3.58
2023-02-11T03:46:29.761Z,4.26
2023-02-11T03:47:29.666Z,4.28
2023-02-11T03:48:29.540Z,3.81
2023-02-11T03:49:29.462Z,3.86
2023-02-11T03:50:29.369Z,4.89
2023-02-11T03:51:29.294Z,4.03
2023-02-11T03:52:29.185Z,3.33
2023-02-11T03:53:29.063Z,3.90
2023-02-11T03:54:29.613Z,4.02
2023-02-11T03:55:28.862Z,3.33
2023-02-11T03:56:28.799Z,4.40
2023-02-11T03:57:28.672Z,3.58
2023-02-11T03:58:28.612Z,3.81
2023-02-11T03:59:28.518Z,3.88
2023-02-11T04:00:28.424Z,4.24
2023-02-11T04:01:28.395Z,3.91
2023-02-11T04:02:28.226Z,3.60
2023-02-11T04:03:28.162Z,3.56
2023-02-11T04:04:28.029Z,3.26
2023-02-11T04:05:27.978Z,3.82
2023-02-11T04:06:27.853Z,3.66
2023-02-11T04:07:27.751Z,3.22
2023-02-11T04:08:27.657Z,3.54
2023-02-11T04:09:30.150Z,3.73
2023-02-11T04:10:27.659Z,3.77
2023-02-11T04:11:27.573Z,4.21
2023-02-11T04:12:27.467Z,4.35
2023-02-11T04:13:27.392Z,3.83
2023-02-11T04:14:27.290Z,3.47
2023-02-11T04:15:27.196Z,3.52
2023-02-11T04:16:27.170Z,3.40
2023-02-11T04:17:27.029Z,3.72
2023-02-11T04:18:26.992Z,3.79
2023-02-11T04:19:26.962Z,3.82
2023-02-11T04:20:26.906Z,3.74
2023-02-11T04:21:26.927Z,3.65
2023-02-11T04:22:26.896Z,3.16
2023-02-11T04:23:26.796Z,3.25
2023-02-11T04:24:26.761Z,3.64
2023-02-11T04:25:26.747Z,3.92
2023-02-11T04:26:26.706Z,4.01
2023-02-11T04:27:26.644Z,3.42
2023-02-11T04:28:26.655Z,3.41
2023-02-11T04:29:26.565Z,3.13
2023-02-11T04:30:26.529Z,3.38
2023-02-11T04:31:26.633Z,3.49
2023-02-11T04:32:26.475Z,3.40
2023-02-11T04:33:26.413Z,3.86
2023-02-11T04:34:26.408Z,3.49
2023-02-11T04:35:26.362Z,3.54
2023-02-11T04:36:26.300Z,3.74
2023-02-11T04:37:26.281Z,3.16
2023-02-11T04:38:26.329Z,3.78
2023-02-11T04:39:26.203Z,3.78
2023-02-11T04:40:26.140Z,3.73
2023-02-11T04:41:26.117Z,3.40
2023-02-11T04:42:26.108Z,3.70
2023-02-11T04:43:26.045Z,2.88
2023-02-11T04:44:25.996Z,3.71
2023-02-11T04:45:25.958Z,3.58
2023-02-11T04:46:25.985Z,3.45
2023-02-11T04:47:25.899Z,3.29
2023-02-11T04:48:25.856Z,3.35
2023-02-11T04:49:25.823Z,3.40
2023-02-11T04:50:26.653Z,3.05
2023-02-11T04:51:25.695Z,3.33
2023-02-11T04:52:25.591Z,3.38
2023-02-11T04:53:25.515Z,3.42
2023-02-11T04:54:25.401Z,3.53
2023-02-11T04:55:25.301Z,3.50
2023-02-11T04:56:25.210Z,3.59
2023-02-11T04:57:25.160Z,3.21
2023-02-11T04:58:25.077Z,3.82
2023-02-11T04:59:25.040Z,3.52
2023-02-11T05:00:24.982Z,3.82
2023-02-11T05:01:25.002Z,3.78
2023-02-11T05:02:24.910Z,3.60
2023-02-11T05:03:24.878Z,3.20
2023-02-11T05:04:24.915Z,2.90
2023-02-11T05:05:24.796Z,3.47
2023-02-11T05:06:24.744Z,3.18
2023-02-11T05:07:24.721Z,2.94
2023-02-11T05:08:24.679Z,3.01
2023-02-11T05:09:24.642Z,3.10
2023-02-11T05:10:24.594Z,3.26
2023-02-11T05:11:24.568Z,2.77
2023-02-11T05:12:24.591Z,3.29
2023-02-11T05:13:24.536Z,3.38
2023-02-11T05:14:24.437Z,2.84
2023-02-11T05:15:24.390Z,3.07
2023-02-11T05:16:24.354Z,2.93
2023-02-11T05:17:24.300Z,3.20
2023-02-11T05:18:24.275Z,3.34
2023-02-11T05:19:24.231Z,3.13
2023-02-11T05:20:24.192Z,2.68
2023-02-11T05:21:24.127Z,3.07
2023-02-11T05:22:24.098Z,2.78
2023-02-11T05:23:24.124Z,2.87
2023-02-11T05:24:24.030Z,2.65
2023-02-11T05:25:23.973Z,3.22
2023-02-11T05:26:23.934Z,2.99
2023-02-11T05:27:24.003Z,3.05
2023-02-11T05:30:24.655Z,3.10
2023-02-11T05:31:24.662Z,2.93
2023-02-11T07:23:14.377Z,3.69
2023-02-11T07:24:14.287Z,4.06
2023-02-11T07:25:14.187Z,3.71
2023-02-11T07:26:14.079Z,3.95
2023-02-11T07:27:13.985Z,3.29
2023-02-11T08:17:11.471Z,4.84
2023-02-11T08:30:10.348Z,4.78
2023-02-11T08:31:10.270Z,4.77
2023-02-11T08:32:10.258Z,4.45
2023-02-11T08:33:10.034Z,4.21
2023-02-11T08:34:09.958Z,4.53
2023-02-11T08:35:09.848Z,4.90
2023-02-11T08:36:09.755Z,4.02
2023-02-11T08:37:09.677Z,3.96
2023-02-11T08:38:09.583Z,4.42
2023-02-11T08:39:18.694Z,4.49
2023-02-11T08:41:09.305Z,4.45
2023-02-11T08:42:09.204Z,4.88
2023-02-11T08:43:09.107Z,4.77
2023-02-11T08:44:09.012Z,4.85
2023-02-11T08:45:08.957Z,4.70
2023-02-11T08:46:08.898Z,4.70
2023-02-11T08:47:08.728Z,4.13
2023-02-11T08:48:08.640Z,4.61
2023-02-11T08:49:08.566Z,4.04
2023-02-11T08:50:08.490Z,4.18
2023-02-11T08:51:08.405Z,4.58
2023-02-11T08:52:08.275Z,4.42
2023-02-11T08:53:08.185Z,4.45
2023-02-11T08:54:08.091Z,4.33
2023-02-11T08:55:08.014Z,4.27
2023-02-11T08:56:07.920Z,4.91
2023-02-11T08:57:07.834Z,4.79
2023-02-11T08:58:07.721Z,4.81
2023-02-11T08:59:07.635Z,4.50
2023-02-11T09:00:07.586Z,4.60
2023-02-11T09:01:07.495Z,3.91
2023-02-11T09:02:07.354Z,4.47
2023-02-11T09:03:07.262Z,4.15
2023-02-11T09:04:07.197Z,4.62
2023-02-11T09:05:07.175Z,4.96
2023-02-11T09:06:07.061Z,4.36
2023-02-11T09:07:06.918Z,4.66
2023-02-11T09:08:06.855Z,4.58
2023-02-11T09:09:06.757Z,4.38
2023-02-11T09:10:06.647Z,4.64
2023-02-11T09:11:06.584Z,4.92
2023-02-11T09:12:06.495Z,4.11
2023-02-11T09:13:06.404Z,4.39
2023-02-11T09:14:06.311Z,4.32
2023-02-11T09:15:06.217Z,4.62
2023-02-11T09:16:06.143Z,5.24
2023-02-11T09:17:06.236Z,5.19
2023-02-11T09:18:05.940Z,5.16
2023-02-11T09:19:05.895Z,4.24
2023-02-11T09:20:05.765Z,4.43
2023-02-11T09:21:06.267Z,4.63
2023-02-11T09:22:05.625Z,5.07
2023-02-11T09:23:08.261Z,5.03
2023-02-11T09:24:05.416Z,4.36
2023-02-11T09:25:05.317Z,4.60
2023-02-11T09:26:09.047Z,4.58
2023-02-11T09:27:05.148Z,3.96
2023-02-11T09:28:05.071Z,4.82
2023-02-11T09:29:04.980Z,4.27
2023-02-11T09:30:04.865Z,4.45
2023-02-11T09:31:04.884Z,4.38
2023-02-11T09:32:06.208Z,3.92
2023-02-11T09:33:04.584Z,4.28
2023-02-11T09:34:04.527Z,4.28
2023-02-11T09:35:04.418Z,4.66
2023-02-11T09:36:05.246Z,4.35
2023-02-11T09:37:04.248Z,4.28
2023-02-11T09:38:04.163Z,4.41
2023-02-11T09:39:04.070Z,4.89
2023-02-11T09:40:03.985Z,4.77
2023-02-11T09:41:03.877Z,4.68
2023-02-11T09:42:03.828Z,4.65
2023-02-11T09:43:06.241Z,3.83
2023-02-11T09:44:03.738Z,4.13
2023-02-11T09:45:03.668Z,4.04
2023-02-11T09:46:03.633Z,4.37
2023-02-11T09:47:03.499Z,4.51
2023-02-11T09:48:06.140Z,4.45
2023-02-11T09:49:03.351Z,4.77
2023-02-11T09:50:03.216Z,4.04
2023-02-11T09:51:03.147Z,4.66
2023-02-11T09:52:03.045Z,4.34
2023-02-11T09:53:02.962Z,4.84
2023-02-11T09:54:05.472Z,4.20
2023-02-11T09:55:03.747Z,3.63
2023-02-11T09:56:02.688Z,4.39
2023-02-11T09:57:02.624Z,4.43
2023-02-11T09:58:02.507Z,4.62
2023-02-11T09:59:02.390Z,3.67
2023-02-11T10:00:02.310Z,4.14
2023-02-11T10:01:02.211Z,4.34
2023-02-11T10:02:02.104Z,5.35
2023-02-11T10:03:01.984Z,3.90
2023-02-11T10:04:01.961Z,3.69
2023-02-11T10:05:01.858Z,4.62
2023-02-11T10:06:01.775Z,4.59
2023-02-11T10:07:02.343Z,4.10
2023-02-11T10:08:01.533Z,4.08
2023-02-11T10:09:01.437Z,4.79
2023-02-11T10:10:01.335Z,4.91
2023-02-11T10:11:01.237Z,4.69
2023-02-11T10:12:01.139Z,4.52
2023-02-11T10:13:01.028Z,4.86
2023-02-11T10:14:00.967Z,4.05
2023-02-11T10:15:01.774Z,5.03
2023-02-11T10:16:00.828Z,4.25
2023-02-11T10:17:00.676Z,4.12
2023-02-11T10:18:00.604Z,4.91
2023-02-11T10:19:00.516Z,4.21
2023-02-11T10:20:00.408Z,4.61
2023-02-11T10:21:00.322Z,4.46
2023-02-11T10:22:00.229Z,4.54
2023-02-11T10:23:00.129Z,4.97
2023-02-11T10:24:00.042Z,3.71
2023-02-11T10:25:00.776Z,4.67
2023-02-11T10:25:59.850Z,3.98
2023-02-11T10:26:59.776Z,4.31
2023-02-11T10:27:59.790Z,4.27
2023-02-11T10:28:59.570Z,4.61
2023-02-11T10:29:59.466Z,4.94
2023-02-11T10:30:59.530Z,4.58
2023-02-11T10:31:59.391Z,4.44
2023-02-11T10:32:59.196Z,5.14
2023-02-11T10:34:00.747Z,4.68
2023-02-11T10:34:59.041Z,4.28
2023-02-11T10:35:58.945Z,4.25
2023-02-11T10:36:58.858Z,4.59
2023-02-11T10:37:58.726Z,4.37
2023-02-11T10:38:58.643Z,4.37
2023-02-11T10:39:58.560Z,3.77
2023-02-11T10:40:58.458Z,4.59
2023-02-11T10:41:58.395Z,4.84
2023-02-11T10:42:58.258Z,4.32
2023-02-11T10:43:58.180Z,4.92
2023-02-11T10:44:58.069Z,3.90
2023-02-11T10:45:58.025Z,3.94
2023-02-11T10:46:57.877Z,4.64
2023-02-11T10:47:57.794Z,4.34
2023-02-11T10:48:57.695Z,4.24
2023-02-11T10:49:57.588Z,3.73
2023-02-11T10:50:57.501Z,4.69
2023-02-11T10:51:57.379Z,5.16
2023-02-11T10:52:57.309Z,4.65
2023-02-11T10:53:57.185Z,5.02
2023-02-11T10:54:57.787Z,5.14
2023-02-11T10:55:57.018Z,4.17
2023-02-11T10:56:56.917Z,3.76
2023-02-11T10:57:57.782Z,4.61
2023-02-11T10:58:56.707Z,4.36
2023-02-11T10:59:56.610Z,4.51
2023-02-11T11:00:56.526Z,4.50
2023-02-11T11:01:56.531Z,4.54
2023-02-11T11:02:56.332Z,4.87
2023-02-11T11:03:56.246Z,4.31
2023-02-11T11:04:56.189Z,4.33
2023-02-11T11:05:58.168Z,5.02
2023-02-11T11:06:56.077Z,4.43
2023-02-11T11:07:55.980Z,4.22
2023-02-11T11:08:55.875Z,4.18
2023-02-11T11:09:55.768Z,4.30
2023-02-11T11:10:55.677Z,4.54
2023-02-11T11:11:55.597Z,4.80
2023-02-11T11:12:55.482Z,4.55
2023-02-11T11:13:55.403Z,4.61
2023-02-11T11:14:55.450Z,4.67
2023-02-11T11:15:55.379Z,4.52
2023-02-11T11:16:55.306Z,5.01
2023-02-11T11:18:07.249Z,4.31
2023-02-11T11:18:56.153Z,4.47
2023-02-11T11:19:55.033Z,4.35
2023-02-11T11:20:54.937Z,4.63
2023-02-11T11:21:54.842Z,4.32
2023-02-11T11:22:54.772Z,4.06
2023-02-11T11:23:54.642Z,4.76
2023-02-11T11:24:54.558Z,3.86
2023-02-11T11:25:54.443Z,4.08
2023-02-11T11:26:54.349Z,4.58
2023-02-11T11:27:54.258Z,4.16
2023-02-11T11:28:54.162Z,4.22
2023-02-11T11:29:54.057Z,4.76
2023-02-11T11:30:54.352Z,4.27
2023-02-11T11:34:53.577Z,4.53
2023-02-11T11:35:53.463Z,4.21
2023-02-11T11:36:53.363Z,4.82
2023-02-11T11:37:53.333Z,5.29
2023-02-11T11:38:53.158Z,4.78
2023-02-11T11:39:53.063Z,4.21
2023-02-11T11:40:52.935Z,4.71
2023-02-11T11:41:52.847Z,4.46
2023-02-11T11:42:52.790Z,4.20
2023-02-11T11:43:52.659Z,4.26
2023-02-11T11:44:52.557Z,4.70
2023-02-11T11:45:52.461Z,4.76
2023-02-11T11:46:52.391Z,4.32
2023-02-11T11:47:52.270Z,4.10
2023-02-11T11:48:52.156Z,4.62
2023-02-11T11:49:52.074Z,4.61
2023-02-11T11:50:52.313Z,4.36
2023-02-11T11:51:51.853Z,4.86
2023-02-11T11:52:51.768Z,4.22
2023-02-11T11:53:51.698Z,4.31
2023-02-11T11:54:51.619Z,4.34
2023-02-11T11:55:51.490Z,3.86
2023-02-11T11:56:51.402Z,4.39
2023-02-11T11:57:51.299Z,4.66
2023-02-11T11:58:51.165Z,4.63
2023-02-11T11:59:51.069Z,4.86
2023-02-11T12:00:51.268Z,4.45
2023-02-11T12:01:50.928Z,4.64
2023-02-11T12:02:50.841Z,4.73
2023-02-11T12:03:50.694Z,4.64
2023-02-11T12:04:50.675Z,4.47
2023-02-11T12:05:50.518Z,5.17
2023-02-11T12:06:50.409Z,4.36
2023-02-11T12:07:50.306Z,4.32
2023-02-11T12:08:50.204Z,4.20
2023-02-11T12:09:50.065Z,4.71
2023-02-11T12:10:50.329Z,4.65
2023-02-11T12:11:49.888Z,4.43
2023-02-11T12:12:49.802Z,4.56
2023-02-11T12:13:49.699Z,4.48
2023-02-11T12:14:49.573Z,4.28
2023-02-11T12:15:49.483Z,3.99
2023-02-11T12:16:49.442Z,5.14
2023-02-11T12:17:49.274Z,3.94
2023-02-11T12:18:49.171Z,4.77
2023-02-11T12:19:49.072Z,4.30
2023-02-11T12:20:49.283Z,5.12
2023-02-11T12:21:48.853Z,4.77
2023-02-11T12:22:48.763Z,4.39
2023-02-11T12:23:48.658Z,4.01
2023-02-11T12:24:48.566Z,3.87
2023-02-11T12:25:48.433Z,4.76
2023-02-11T12:26:48.331Z,3.98
2023-02-11T12:27:48.378Z,4.50
2023-02-11T12:28:48.144Z,5.03
2023-02-11T12:29:48.030Z,4.54
2023-02-11T12:30:48.056Z,4.22
2023-02-11T12:31:47.858Z,4.94
2023-02-11T12:32:47.750Z,4.87
2023-02-11T12:33:47.654Z,4.63
2023-02-11T12:34:47.548Z,4.34
2023-02-11T12:35:47.449Z,4.52
2023-02-11T12:36:47.394Z,4.77
2023-02-11T12:37:47.226Z,4.09
2023-02-11T12:38:47.130Z,4.63
2023-02-11T12:39:47.028Z,4.45
2023-02-11T12:40:46.974Z,4.58
2023-02-11T12:41:46.826Z,4.15
2023-02-11T12:42:46.718Z,4.38
2023-02-11T12:43:46.823Z,4.64
2023-02-11T12:44:46.516Z,4.37
2023-02-11T12:45:48.345Z,4.05
2023-02-11T12:46:46.305Z,4.35
2023-02-11T12:47:46.214Z,5.02
2023-02-11T12:48:46.129Z,5.12
2023-02-11T12:49:46.023Z,4.50
2023-02-11T12:50:45.907Z,4.95
2023-02-11T12:51:45.815Z,4.45
2023-02-11T12:52:45.727Z,5.03
2023-02-11T12:53:45.575Z,4.60
2023-02-11T12:54:45.520Z,5.23
2023-02-11T12:55:45.377Z,4.32
2023-02-11T12:56:45.288Z,4.94
2023-02-11T12:57:45.173Z,4.50
2023-02-11T12:58:45.882Z,5.09
2023-02-11T12:59:44.993Z,4.38
2023-02-11T13:00:44.904Z,5.11
2023-02-11T13:01:44.860Z,4.28
2023-02-11T13:02:44.718Z,4.90
2023-02-11T13:03:44.560Z,4.83
2023-02-11T13:04:44.468Z,4.83
2023-02-11T13:05:44.374Z,4.44
2023-02-11T13:06:44.249Z,4.58
2023-02-11T13:07:44.182Z,4.26
2023-02-11T14:17:31.328Z,4.78
2023-02-11T18:14:27.054Z,5.65
2023-02-11T18:15:27.052Z,6.26
2023-02-11T18:16:27.063Z,5.64
2023-02-11T18:17:27.035Z,5.90
2023-02-11T18:18:27.019Z,5.88
2023-02-11T18:19:26.995Z,5.00
2023-02-11T18:20:26.990Z,5.24
2023-02-11T18:21:26.978Z,6.25
2023-02-11T18:22:26.955Z,5.05
2023-02-11T18:23:26.957Z,5.92
2023-02-11T18:24:26.916Z,6.34
2023-02-11T18:25:26.951Z,5.53
2023-02-11T18:26:26.899Z,5.73
2023-02-11T18:27:26.885Z,5.71
2023-02-11T18:28:26.919Z,6.12
2023-02-11T18:29:26.865Z,6.11
2023-02-11T18:30:26.842Z,5.68
2023-02-11T18:31:26.855Z,6.05
2023-02-11T18:32:26.841Z,5.44
2023-02-11T18:33:26.789Z,5.84
2023-02-11T18:34:26.792Z,5.39
2023-02-11T18:35:26.775Z,5.42
2023-02-11T18:36:26.759Z,5.48
2023-02-11T18:37:26.718Z,5.67
2023-02-11T18:38:26.709Z,5.66
2023-02-11T18:39:26.712Z,5.10
2023-02-11T18:40:26.666Z,5.46
2023-02-11T18:41:26.673Z,5.33
2023-02-11T18:42:26.632Z,5.66
2023-02-11T18:43:26.633Z,6.05
2023-02-11T18:44:26.614Z,5.61
2023-02-11T18:45:26.605Z,5.05
2023-02-11T18:46:26.707Z,5.76
2023-02-11T18:47:26.554Z,5.50
2023-02-11T18:48:26.570Z,5.29
2023-02-11T18:49:26.520Z,5.02
2023-02-11T18:50:26.515Z,5.58
2023-02-11T18:51:26.495Z,5.41
2023-02-11T18:52:26.459Z,5.27
2023-02-11T18:53:26.473Z,5.44
2023-02-11T18:54:26.440Z,5.54
2023-02-11T18:55:26.447Z,6.51
2023-02-11T18:56:26.399Z,6.52
2023-02-11T18:57:26.387Z,5.72
2023-02-11T18:58:26.358Z,5.34
2023-02-11T18:59:26.361Z,5.64
2023-02-11T19:00:26.349Z,5.80
2023-02-11T19:01:26.409Z,5.58
2023-02-11T19:02:26.308Z,4.53
2023-02-11T19:03:26.285Z,4.89
2023-02-11T19:04:26.319Z,5.54
2023-02-11T19:05:26.267Z,4.67
2023-02-11T19:06:26.242Z,5.11
2023-02-11T19:07:26.250Z,5.07
2023-02-11T19:08:26.208Z,5.15
2023-02-11T19:09:26.188Z,4.96
2023-02-11T19:10:26.197Z,5.10
2023-02-11T19:11:26.187Z,5.06
2023-02-11T19:12:26.175Z,5.54
2023-02-11T19:13:26.144Z,5.19
2023-02-11T19:14:26.183Z,4.53
2023-02-11T19:15:26.133Z,5.17
2023-02-11T19:16:26.268Z,4.77
2023-02-11T19:17:26.096Z,4.64
2023-02-11T19:18:26.109Z,5.62
2023-02-11T19:19:26.088Z,4.78
2023-02-11T19:20:26.051Z,5.69
2023-02-11T19:21:26.062Z,5.04
2023-02-11T19:22:26.046Z,5.17
2023-02-11T19:23:26.047Z,5.19
2023-02-11T19:24:26.028Z,5.02
2023-02-11T19:25:26.016Z,4.97
2023-02-11T19:26:25.994Z,4.99
2023-02-11T19:27:25.999Z,5.06
2023-02-11T19:28:25.977Z,4.49
2023-02-11T19:29:25.975Z,4.70
2023-02-11T19:30:25.962Z,5.11
2023-02-11T19:31:26.074Z,5.24
2023-02-11T19:32:25.929Z,5.16
2023-02-11T19:33:26.821Z,5.10
2023-02-11T19:34:25.908Z,5.21
2023-02-11T19:35:25.901Z,5.16
2023-02-11T19:36:25.874Z,4.98
2023-02-11T19:37:25.865Z,4.87
2023-02-11T19:38:25.852Z,5.29
2023-02-11T19:39:25.877Z,4.91
2023-02-11T19:40:25.873Z,5.60
2023-02-11T19:41:25.823Z,5.15
2023-02-11T19:42:27.500Z,4.77
2023-02-11T19:43:25.813Z,4.84
2023-02-11T19:44:25.781Z,4.82
2023-02-11T19:45:25.776Z,5.69
2023-02-11T19:46:25.793Z,5.36
2023-02-11T19:47:25.738Z,4.94
2023-02-11T19:48:25.721Z,5.41
2023-02-11T19:49:25.729Z,5.03
2023-02-11T19:50:25.694Z,5.91
2023-02-11T19:51:25.702Z,5.10
2023-02-11T19:52:25.703Z,5.15
2023-02-11T19:53:25.656Z,5.24
2023-02-11T19:54:25.641Z,4.73
2023-02-11T19:55:25.686Z,4.87
2023-02-11T19:56:25.632Z,5.58
2023-02-11T19:57:25.622Z,5.04
2023-02-11T19:58:25.596Z,5.33
2023-02-11T19:59:25.592Z,5.44
2023-02-11T20:00:25.584Z,5.61
2023-02-11T20:01:25.615Z,5.46
2023-02-11T20:02:25.607Z,5.10
2023-02-11T20:03:25.541Z,5.06
2023-02-11T20:04:25.516Z,5.02
2023-02-11T20:05:25.528Z,5.40
2023-02-11T20:06:25.494Z,5.48
2023-02-11T20:07:25.500Z,5.03
2023-02-11T20:08:25.477Z,5.08
2023-02-11T20:09:25.478Z,5.49
2023-02-11T20:10:25.933Z,5.11
2023-02-11T20:11:25.460Z,5.19
2023-02-11T20:12:25.438Z,5.60
2023-02-11T20:13:25.449Z,5.27
2023-02-11T20:14:27.829Z,4.95
2023-02-11T20:15:25.604Z,5.76
2023-02-11T20:16:40.781Z,4.99
2023-02-11T20:17:26.576Z,5.42
2023-02-11T20:18:25.562Z,5.25
2023-02-11T20:19:25.513Z,5.28
2023-02-11T20:20:25.512Z,5.10
2023-02-11T20:21:25.485Z,5.47
2023-02-11T20:22:25.485Z,5.11
2023-02-11T20:23:25.461Z,5.40
2023-02-11T20:24:25.517Z,5.43
2023-02-11T20:25:25.440Z,4.93
2023-02-11T20:26:25.451Z,4.75
2023-02-11T20:27:25.390Z,4.42
2023-02-11T20:28:25.420Z,4.72
2023-02-11T20:29:25.365Z,5.49
2023-02-11T20:30:25.365Z,5.07
2023-02-11T20:31:25.509Z,5.96
2023-02-11T20:32:25.348Z,4.78
2023-02-11T20:33:25.329Z,5.01
2023-02-11T20:34:25.377Z,4.63
2023-02-11T20:35:25.302Z,5.59
2023-02-11T20:36:25.309Z,5.06
2023-02-11T20:37:25.320Z,5.04
2023-02-11T20:38:25.283Z,5.38
2023-02-11T20:39:25.317Z,5.39
2023-02-11T20:40:25.241Z,5.08
2023-02-11T20:41:25.238Z,4.81
2023-02-11T20:42:25.239Z,4.99
2023-02-11T20:43:25.209Z,5.85
2023-02-11T20:44:25.218Z,5.38
2023-02-11T20:45:25.246Z,4.98
2023-02-11T20:46:25.282Z,5.25
2023-02-11T20:47:25.185Z,4.68
2023-02-11T20:48:25.176Z,4.95
2023-02-11T20:49:25.193Z,5.79
2023-02-11T20:50:25.130Z,5.18
2023-02-11T20:51:25.879Z,5.50
2023-02-11T20:52:25.117Z,4.76
2023-02-11T20:53:25.115Z,5.62
2023-02-11T20:54:25.120Z,5.19
2023-02-11T20:55:25.125Z,5.73
2023-02-11T20:56:25.089Z,5.52
2023-02-11T20:57:25.094Z,5.25
2023-02-11T20:58:25.353Z,5.45
2023-02-11T20:59:25.054Z,4.89
2023-02-11T21:00:25.068Z,5.07
2023-02-11T21:01:25.068Z,4.60
2023-02-11T21:02:25.087Z,5.15
2023-02-11T21:03:25.029Z,5.06
2023-02-11T21:04:25.011Z,5.38
2023-02-11T21:05:25.004Z,5.08
2023-02-11T21:06:24.983Z,6.10
2023-02-11T21:07:24.966Z,6.05
2023-02-11T21:08:24.961Z,5.65
2023-02-11T21:09:24.984Z,5.24
2023-02-11T21:10:24.968Z,5.19
2023-02-11T21:11:24.929Z,5.11
2023-02-11T21:12:24.925Z,5.40
2023-02-11T21:13:24.901Z,5.98
2023-02-11T21:14:24.903Z,5.63
2023-02-11T21:15:24.887Z,5.23
2023-02-11T21:16:24.894Z,5.89
2023-02-11T21:17:24.855Z,4.91
2023-02-11T21:18:24.821Z,5.44
2023-02-11T21:19:24.871Z,4.78
2023-02-11T21:20:24.839Z,4.92
2023-02-11T21:21:24.847Z,4.63
2023-02-11T21:22:24.799Z,5.30
2023-02-11T21:23:24.797Z,5.13
2023-02-11T21:24:24.766Z,5.48
2023-02-11T21:25:24.777Z,5.21
2023-02-11T21:26:25.359Z,5.41
2023-02-11T21:27:24.728Z,5.35
2023-02-11T21:28:24.731Z,5.03
2023-02-11T21:29:24.731Z,4.85
2023-02-11T21:30:24.695Z,5.47
2023-02-11T21:31:25.422Z,5.54
2023-02-11T21:32:24.676Z,5.34
2023-02-11T21:33:24.655Z,5.09
2023-02-11T21:34:24.622Z,5.25
2023-02-11T21:35:24.603Z,5.19
2023-02-11T21:36:25.362Z,4.96
2023-02-11T21:37:24.583Z,5.53
2023-02-11T21:38:24.551Z,5.21
2023-02-11T21:39:24.559Z,5.75
2023-02-11T21:40:24.533Z,5.10
2023-02-11T21:41:24.574Z,5.53
2023-02-11T21:42:24.520Z,5.52
2023-02-11T21:43:24.530Z,5.42
2023-02-11T21:44:24.485Z,5.51
2023-02-11T21:45:24.453Z,4.91
2023-02-11T21:46:24.488Z,4.80
2023-02-11T21:47:24.410Z,5.38
2023-02-11T21:48:24.418Z,5.60
2023-02-11T21:49:24.387Z,5.71
2023-02-11T21:50:24.368Z,5.81
2023-02-11T21:51:24.364Z,5.67
2023-02-11T21:52:24.337Z,5.76
2023-02-11T21:53:24.312Z,5.05
2023-02-11T21:54:24.318Z,5.39
2023-02-11T21:55:24.306Z,5.30
2023-02-11T21:56:24.254Z,5.48
2023-02-11T21:57:24.254Z,5.78
2023-02-11T21:58:24.207Z,5.28
2023-02-11T21:59:24.184Z,6.26
2023-02-11T22:00:24.192Z,5.28
2023-02-11T22:01:24.138Z,6.61
2023-02-11T22:02:26.873Z,5.52
2023-02-11T22:03:24.109Z,5.83
2023-02-11T22:04:24.135Z,5.82
2023-02-11T22:05:24.110Z,5.24
2023-02-11T22:06:24.055Z,5.13
2023-02-11T22:07:24.026Z,5.13
2023-02-11T22:08:24.002Z,5.66
2023-02-11T22:09:24.878Z,5.27
2023-02-11T22:10:23.965Z,5.85
2023-02-11T22:11:24.014Z,5.33
2023-02-11T22:12:23.943Z,5.83
2023-02-11T22:13:23.929Z,5.43
2023-02-11T22:14:23.933Z,5.53
2023-02-11T22:23:24.364Z,6.27
2023-02-11T22:42:26.389Z,5.83
2023-02-11T22:43:24.384Z,5.79
2023-02-11T23:33:25.416Z,5.42
